sensor_id;sensor_type;location;lat;lon;timestamp;pressure;altitude;pressure_sealevel;temperature;humidity
36600;BME280;35385;55.668;37.508;2024-03-08T00:00:34;99361.63;;;-3.61;100.00
36600;BME280;35385;55.668;37.508;2024-03-08T00:01:35;99364.84;;;-3.53;100.00
36600;BME280;35385;55.668;37.508;2024-03-08T00:02:36;99362.16;;;-3.50;100.00
36600;BME280;35385;55.668;37.508;2024-03-08T00:03:37;99357.91;;;-3.54;100.00
36600;BME280;35385;55.668;37.508;2024-03-08T00:04:37;99360.53;;;-3.54;100.00
36600;BME280;35385;55.668;37.508;2024-03-08T00:05:37;99353.25;;;-3.72;100.00
36600;BME280;35385;55.668;37.508;2024-03-08T00:06:38;99355.56;;;-3.91;100.00
36600;BME280;35385;55.668;37.508;2024-03-08T00:07:40;99352.75;;;-3.85;100.00
36600;BME280;35385;55.668;37.508;2024-03-08T00:08:40;99349.56;;;-3.65;100.00
36600;BME280;35385;55.668;37.508;2024-03-08T00:09:41;99343.88;;;-3.50;100.00
36600;BME280;35385;55.668;37.508;2024-03-08T00:10:41;99345.47;;;-3.46;100.00
36600;BME280;35385;55.668;37.508;2024-03-08T00:11:42;99346.00;;;-3.63;100.00
36600;BME280;35385;55.668;37.508;2024-03-08T00:12:45;99342.53;;;-3.63;100.00
36600;BME280;35385;55.668;37.508;2024-03-08T00:13:46;99341.09;;;-3.73;100.00
36600;BME280;35385;55.668;37.508;2024-03-08T00:14:46;99338.91;;;-3.59;100.00
36600;BME280;35385;55.668;37.508;2024-03-08T00:15:47;99338.84;;;-3.56;100.00
36600;BME280;35385;55.668;37.508;2024-03-08T00:16:47;99341.28;;;-3.79;100.00
36600;BME280;35385;55.668;37.508;2024-03-08T00:17:48;99338.41;;;-4.00;100.00
36600;BME280;35385;55.668;37.508;2024-03-08T00:18:48;99333.63;;;-4.15;100.00
36600;BME280;35385;55.668;37.508;2024-03-08T00:19:49;99329.09;;;-4.08;100.00
36600;BME280;35385;55.668;37.508;2024-03-08T00:20:52;99335.38;;;-3.86;100.00
36600;BME280;35385;55.668;37.508;2024-03-08T00:21:53;99334.22;;;-4.05;100.00
36600;BME280;35385;55.668;37.508;2024-03-08T00:22:53;99337.34;;;-4.23;100.00
36600;BME280;35385;55.668;37.508;2024-03-08T00:23:53;99334.16;;;-4.33;100.00
36600;BME280;35385;55.668;37.508;2024-03-08T00:24:57;99323.03;;;-4.40;100.00
36600;BME280;35385;55.668;37.508;2024-03-08T00:25:57;99324.06;;;-4.47;100.00
36600;BME280;35385;55.668;37.508;2024-03-08T00:26:57;99327.38;;;-4.40;100.00
36600;BME280;35385;55.668;37.508;2024-03-08T00:27:58;99322.91;;;-4.35;100.00
36600;BME280;35385;55.668;37.508;2024-03-08T00:29:00;99323.53;;;-4.27;100.00
36600;BME280;35385;55.668;37.508;2024-03-08T00:30:00;99325.38;;;-4.01;100.00
36600;BME280;35385;55.668;37.508;2024-03-08T00:31:01;99325.16;;;-3.92;100.00
36600;BME280;35385;55.668;37.508;2024-03-08T00:32:01;99326.00;;;-3.92;100.00
36600;BME280;35385;55.668;37.508;2024-03-08T00:33:01;99320.66;;;-4.18;100.00
36600;BME280;35385;55.668;37.508;2024-03-08T00:34:02;99324.19;;;-4.19;100.00
36600;BME280;35385;55.668;37.508;2024-03-08T00:35:02;99323.25;;;-4.18;100.00
36600;BME280;35385;55.668;37.508;2024-03-08T00:36:03;99325.75;;;-4.13;100.00
36600;BME280;35385;55.668;37.508;2024-03-08T00:37:04;99309.75;;;-4.32;100.00
36600;BME280;35385;55.668;37.508;2024-03-08T00:38:04;99313.44;;;-4.39;100.00
36600;BME280;35385;55.668;37.508;2024-03-08T00:39:05;99313.38;;;-4.36;100.00
36600;BME280;35385;55.668;37.508;2024-03-08T00:40:08;99320.75;;;-4.21;100.00
36600;BME280;35385;55.668;37.508;2024-03-08T00:41:11;99317.72;;;-4.06;100.00
36600;BME280;35385;55.668;37.508;2024-03-08T00:42:12;99310.56;;;-4.30;100.00
36600;BME280;35385;55.668;37.508;2024-03-08T00:43:13;99314.72;;;-4.23;100.00
36600;BME280;35385;55.668;37.508;2024-03-08T00:44:15;99309.50;;;-4.23;100.00
36600;BME280;35385;55.668;37.508;2024-03-08T00:45:16;99309.56;;;-4.24;100.00
36600;BME280;35385;55.668;37.508;2024-03-08T00:46:16;99306.59;;;-4.43;100.00
36600;BME280;35385;55.668;37.508;2024-03-08T00:47:17;99304.69;;;-4.37;100.00
36600;BME280;35385;55.668;37.508;2024-03-08T00:48:17;99306.38;;;-4.34;100.00
36600;BME280;35385;55.668;37.508;2024-03-08T00:49:18;99301.31;;;-4.40;100.00
36600;BME280;35385;55.668;37.508;2024-03-08T00:50:18;99296.91;;;-4.38;100.00
36600;BME280;35385;55.668;37.508;2024-03-08T00:51:19;99296.94;;;-4.40;100.00
36600;BME280;35385;55.668;37.508;2024-03-08T00:52:19;99296.50;;;-4.24;100.00
36600;BME280;35385;55.668;37.508;2024-03-08T00:53:19;99293.00;;;-4.23;100.00
36600;BME280;35385;55.668;37.508;2024-03-08T00:54:20;99290.16;;;-4.16;100.00
36600;BME280;35385;55.668;37.508;2024-03-08T00:55:20;99291.72;;;-4.09;100.00
36600;BME280;35385;55.668;37.508;2024-03-08T00:56:21;99285.41;;;-4.02;100.00
36600;BME280;35385;55.668;37.508;2024-03-08T00:57:21;99287.84;;;-3.96;100.00
36600;BME280;35385;55.668;37.508;2024-03-08T00:58:22;99289.25;;;-3.85;100.00
36600;BME280;35385;55.668;37.508;2024-03-08T00:59:24;99284.34;;;-3.95;100.00
36600;BME280;35385;55.668;37.508;2024-03-08T01:00:24;99285.63;;;-3.80;100.00
36600;BME280;35385;55.668;37.508;2024-03-08T01:01:25;99282.22;;;-4.11;100.00
36600;BME280;35385;55.668;37.508;2024-03-08T01:02:26;99285.84;;;-4.17;100.00
36600;BME280;35385;55.668;37.508;2024-03-08T01:03:26;99282.91;;;-4.05;100.00
36600;BME280;35385;55.668;37.508;2024-03-08T01:04:27;99277.78;;;-4.08;100.00
36600;BME280;35385;55.668;37.508;2024-03-08T01:05:30;99276.50;;;-4.24;100.00
36600;BME280;35385;55.668;37.508;2024-03-08T01:06:31;99271.63;;;-4.05;100.00
36600;BME280;35385;55.668;37.508;2024-03-08T01:07:32;99272.19;;;-3.96;100.00
36600;BME280;35385;55.668;37.508;2024-03-08T01:08:32;99277.31;;;-3.93;100.00
36600;BME280;35385;55.668;37.508;2024-03-08T01:09:33;99276.31;;;-3.88;100.00
36600;BME280;35385;55.668;37.508;2024-03-08T01:10:33;99276.47;;;-3.93;100.00
36600;BME280;35385;55.668;37.508;2024-03-08T01:11:34;99266.84;;;-4.20;100.00
36600;BME280;35385;55.668;37.508;2024-03-08T01:12:34;99267.19;;;-4.33;100.00
36600;BME280;35385;55.668;37.508;2024-03-08T01:13:35;99264.72;;;-4.37;100.00
36600;BME280;35385;55.668;37.508;2024-03-08T01:14:36;99265.75;;;-4.13;100.00
36600;BME280;35385;55.668;37.508;2024-03-08T01:15:36;99258.97;;;-4.19;100.00
36600;BME280;35385;55.668;37.508;2024-03-08T01:16:37;99267.59;;;-4.17;100.00
36600;BME280;35385;55.668;37.508;2024-03-08T01:17:37;99260.78;;;-4.21;100.00
36600;BME280;35385;55.668;37.508;2024-03-08T01:18:37;99263.28;;;-4.47;100.00
36600;BME280;35385;55.668;37.508;2024-03-08T01:19:38;99264.44;;;-4.59;100.00
36600;BME280;35385;55.668;37.508;2024-03-08T01:20:38;99265.94;;;-4.49;100.00
36600;BME280;35385;55.668;37.508;2024-03-08T01:21:41;99263.59;;;-4.59;100.00
36600;BME280;35385;55.668;37.508;2024-03-08T01:22:42;99262.63;;;-4.55;100.00
36600;BME280;35385;55.668;37.508;2024-03-08T01:23:42;99260.84;;;-4.53;100.00
36600;BME280;35385;55.668;37.508;2024-03-08T01:24:42;99263.16;;;-4.44;100.00
36600;BME280;35385;55.668;37.508;2024-03-08T01:25:43;99265.13;;;-4.21;100.00
36600;BME280;35385;55.668;37.508;2024-03-08T01:26:44;99266.00;;;-4.21;100.00
36600;BME280;35385;55.668;37.508;2024-03-08T01:27:44;99267.41;;;-4.11;100.00
36600;BME280;35385;55.668;37.508;2024-03-08T01:28:45;99268.03;;;-4.03;100.00
36600;BME280;35385;55.668;37.508;2024-03-08T01:29:45;99257.28;;;-3.92;100.00
36600;BME280;35385;55.668;37.508;2024-03-08T01:30:46;99260.28;;;-4.04;100.00
36600;BME280;35385;55.668;37.508;2024-03-08T01:31:46;99255.56;;;-4.21;100.00
36600;BME280;35385;55.668;37.508;2024-03-08T01:32:47;99260.44;;;-4.40;100.00
36600;BME280;35385;55.668;37.508;2024-03-08T01:33:47;99253.34;;;-4.35;100.00
36600;BME280;35385;55.668;37.508;2024-03-08T01:34:48;99254.22;;;-4.34;100.00
36600;BME280;35385;55.668;37.508;2024-03-08T01:35:48;99254.41;;;-4.12;100.00
36600;BME280;35385;55.668;37.508;2024-03-08T01:36:49;99261.66;;;-3.93;100.00
36600;BME280;35385;55.668;37.508;2024-03-08T01:37:49;99252.56;;;-3.79;100.00
36600;BME280;35385;55.668;37.508;2024-03-08T01:38:50;99258.72;;;-3.82;100.00
36600;BME280;35385;55.668;37.508;2024-03-08T01:39:50;99253.41;;;-3.79;100.00
36600;BME280;35385;55.668;37.508;2024-03-08T01:40:51;99226.94;;;-3.95;100.00
36600;BME280;35385;55.668;37.508;2024-03-08T01:41:51;99250.84;;;-3.80;100.00
36600;BME280;35385;55.668;37.508;2024-03-08T01:42:51;99250.53;;;-3.71;100.00
36600;BME280;35385;55.668;37.508;2024-03-08T01:43:53;99247.28;;;-3.78;100.00
36600;BME280;35385;55.668;37.508;2024-03-08T01:44:53;99257.69;;;-3.76;100.00
36600;BME280;35385;55.668;37.508;2024-03-08T01:45:58;99251.78;;;-3.83;100.00
36600;BME280;35385;55.668;37.508;2024-03-08T01:47:01;99249.34;;;-3.89;100.00
36600;BME280;35385;55.668;37.508;2024-03-08T01:48:02;99248.69;;;-3.96;100.00
36600;BME280;35385;55.668;37.508;2024-03-08T01:49:02;99252.44;;;-4.04;100.00
36600;BME280;35385;55.668;37.508;2024-03-08T01:50:03;99242.19;;;-3.82;100.00
36600;BME280;35385;55.668;37.508;2024-03-08T01:51:06;99243.56;;;-3.99;100.00
36600;BME280;35385;55.668;37.508;2024-03-08T01:52:06;99236.88;;;-3.79;100.00
36600;BME280;35385;55.668;37.508;2024-03-08T01:53:07;99248.44;;;-3.60;100.00
36600;BME280;35385;55.668;37.508;2024-03-08T01:54:10;99236.59;;;-3.70;100.00
36600;BME280;35385;55.668;37.508;2024-03-08T01:55:10;99246.94;;;-3.67;100.00
36600;BME280;35385;55.668;37.508;2024-03-08T01:56:14;99240.56;;;-3.86;100.00
36600;BME280;35385;55.668;37.508;2024-03-08T01:57:15;99233.47;;;-3.81;100.00
36600;BME280;35385;55.668;37.508;2024-03-08T01:58:15;99238.91;;;-3.89;100.00
36600;BME280;35385;55.668;37.508;2024-03-08T01:59:16;99235.75;;;-3.99;100.00
36600;BME280;35385;55.668;37.508;2024-03-08T02:00:18;99243.44;;;-3.94;100.00
36600;BME280;35385;55.668;37.508;2024-03-08T02:01:19;99249.63;;;-3.98;100.00
36600;BME280;35385;55.668;37.508;2024-03-08T02:02:19;99252.06;;;-4.20;100.00
36600;BME280;35385;55.668;37.508;2024-03-08T02:03:20;99248.38;;;-4.44;100.00
36600;BME280;35385;55.668;37.508;2024-03-08T02:04:22;99242.06;;;-4.35;100.00
36600;BME280;35385;55.668;37.508;2024-03-08T02:05:23;99255.41;;;-4.16;100.00
36600;BME280;35385;55.668;37.508;2024-03-08T02:06:23;99256.69;;;-4.02;100.00
36600;BME280;35385;55.668;37.508;2024-03-08T02:07:24;99251.97;;;-3.89;100.00
36600;BME280;35385;55.668;37.508;2024-03-08T02:08:24;99247.88;;;-3.98;100.00
36600;BME280;35385;55.668;37.508;2024-03-08T02:09:24;99246.94;;;-3.95;100.00
36600;BME280;35385;55.668;37.508;2024-03-08T02:10:25;99245.06;;;-3.90;100.00
36600;BME280;35385;55.668;37.508;2024-03-08T02:11:25;99242.63;;;-3.96;100.00
36600;BME280;35385;55.668;37.508;2024-03-08T02:12:26;99240.97;;;-3.99;100.00
36600;BME280;35385;55.668;37.508;2024-03-08T02:13:26;99236.63;;;-4.00;100.00
36600;BME280;35385;55.668;37.508;2024-03-08T02:14:28;99247.50;;;-4.13;100.00
36600;BME280;35385;55.668;37.508;2024-03-08T02:17:07;99231.97;;;-4.18;100.00
36600;BME280;35385;55.668;37.508;2024-03-08T02:18:08;99233.59;;;-4.14;100.00
36600;BME280;35385;55.668;37.508;2024-03-08T02:19:08;99239.63;;;-4.12;100.00
36600;BME280;35385;55.668;37.508;2024-03-08T02:20:10;99232.66;;;-4.11;100.00
36600;BME280;35385;55.668;37.508;2024-03-08T02:21:13;99231.84;;;-4.43;100.00
36600;BME280;35385;55.668;37.508;2024-03-08T02:22:14;99225.81;;;-4.76;100.00
36600;BME280;35385;55.668;37.508;2024-03-08T02:23:14;99219.00;;;-4.49;100.00
36600;BME280;35385;55.668;37.508;2024-03-08T02:24:15;99228.56;;;-4.49;100.00
36600;BME280;35385;55.668;37.508;2024-03-08T02:25:15;99223.44;;;-4.52;100.00
36600;BME280;35385;55.668;37.508;2024-03-08T02:26:16;99223.06;;;-4.70;100.00
36600;BME280;35385;55.668;37.508;2024-03-08T02:27:22;99225.22;;;-4.54;100.00
36600;BME280;35385;55.668;37.508;2024-03-08T02:28:23;99220.75;;;-4.49;100.00
36600;BME280;35385;55.668;37.508;2024-03-08T02:29:25;99227.31;;;-4.36;100.00
36600;BME280;35385;55.668;37.508;2024-03-08T02:30:25;99231.53;;;-4.32;100.00
36600;BME280;35385;55.668;37.508;2024-03-08T02:31:29;99223.53;;;-4.55;100.00
36600;BME280;35385;55.668;37.508;2024-03-08T02:32:30;99226.81;;;-4.80;100.00
36600;BME280;35385;55.668;37.508;2024-03-08T02:33:32;99225.94;;;-4.79;100.00
36600;BME280;35385;55.668;37.508;2024-03-08T02:34:33;99224.25;;;-4.50;100.00
36600;BME280;35385;55.668;37.508;2024-03-08T02:35:33;99230.00;;;-4.39;100.00
36600;BME280;35385;55.668;37.508;2024-03-08T02:36:34;99226.78;;;-4.47;100.00
36600;BME280;35385;55.668;37.508;2024-03-08T02:37:35;99220.47;;;-4.40;100.00
36600;BME280;35385;55.668;37.508;2024-03-08T02:38:35;99232.38;;;-4.32;100.00
36600;BME280;35385;55.668;37.508;2024-03-08T02:39:35;99233.28;;;-4.33;100.00
36600;BME280;35385;55.668;37.508;2024-03-08T02:40:36;99230.94;;;-4.42;100.00
36600;BME280;35385;55.668;37.508;2024-03-08T02:41:36;99232.75;;;-4.75;100.00
36600;BME280;35385;55.668;37.508;2024-03-08T02:42:37;99217.72;;;-4.65;100.00
36600;BME280;35385;55.668;37.508;2024-03-08T02:43:37;99232.97;;;-4.51;100.00
36600;BME280;35385;55.668;37.508;2024-03-08T02:44:38;99226.56;;;-4.71;100.00
36600;BME280;35385;55.668;37.508;2024-03-08T02:45:42;99222.97;;;-4.97;100.00
36600;BME280;35385;55.668;37.508;2024-03-08T02:46:42;99225.97;;;-5.13;100.00
36600;BME280;35385;55.668;37.508;2024-03-08T02:47:42;99217.69;;;-5.28;100.00
36600;BME280;35385;55.668;37.508;2024-03-08T02:48:43;99225.44;;;-5.25;100.00
36600;BME280;35385;55.668;37.508;2024-03-08T02:49:43;99213.16;;;-5.20;100.00
36600;BME280;35385;55.668;37.508;2024-03-08T02:50:44;99224.59;;;-4.93;100.00
36600;BME280;35385;55.668;37.508;2024-03-08T02:51:44;99225.19;;;-5.16;100.00
36600;BME280;35385;55.668;37.508;2024-03-08T02:52:46;99221.94;;;-5.24;100.00
36600;BME280;35385;55.668;37.508;2024-03-08T02:53:46;99224.94;;;-5.06;100.00
36600;BME280;35385;55.668;37.508;2024-03-08T02:54:48;99213.50;;;-5.02;100.00
36600;BME280;35385;55.668;37.508;2024-03-08T02:55:50;99220.88;;;-4.85;100.00
36600;BME280;35385;55.668;37.508;2024-03-08T02:56:50;99222.28;;;-4.73;100.00
36600;BME280;35385;55.668;37.508;2024-03-08T02:57:51;99221.72;;;-4.84;100.00
36600;BME280;35385;55.668;37.508;2024-03-08T02:58:52;99220.78;;;-4.82;100.00
36600;BME280;35385;55.668;37.508;2024-03-08T02:59:53;99225.81;;;-4.76;100.00
36600;BME280;35385;55.668;37.508;2024-03-08T03:00:53;99215.41;;;-4.76;100.00
36600;BME280;35385;55.668;37.508;2024-03-08T03:01:55;99221.19;;;-4.65;100.00
36600;BME280;35385;55.668;37.508;2024-03-08T03:02:58;99215.75;;;-4.88;100.00
36600;BME280;35385;55.668;37.508;2024-03-08T03:03:59;99216.22;;;-4.74;100.00
36600;BME280;35385;55.668;37.508;2024-03-08T03:04:59;99211.69;;;-4.67;100.00
36600;BME280;35385;55.668;37.508;2024-03-08T03:06:04;99212.47;;;-4.64;100.00
36600;BME280;35385;55.668;37.508;2024-03-08T03:07:07;99216.91;;;-4.98;100.00
36600;BME280;35385;55.668;37.508;2024-03-08T03:08:07;99201.91;;;-4.90;100.00
36600;BME280;35385;55.668;37.508;2024-03-08T03:09:08;99204.25;;;-4.81;100.00
36600;BME280;35385;55.668;37.508;2024-03-08T03:10:10;99200.22;;;-4.91;100.00
36600;BME280;35385;55.668;37.508;2024-03-08T03:11:12;99196.66;;;-4.88;100.00
36600;BME280;35385;55.668;37.508;2024-03-08T03:12:13;99195.72;;;-4.86;100.00
36600;BME280;35385;55.668;37.508;2024-03-08T03:13:14;99204.66;;;-4.94;100.00
36600;BME280;35385;55.668;37.508;2024-03-08T03:14:14;99199.59;;;-5.01;100.00
36600;BME280;35385;55.668;37.508;2024-03-08T03:15:16;99204.03;;;-5.04;100.00
36600;BME280;35385;55.668;37.508;2024-03-08T03:16:17;99188.53;;;-5.09;100.00
36600;BME280;35385;55.668;37.508;2024-03-08T03:17:19;99194.38;;;-5.01;100.00
36600;BME280;35385;55.668;37.508;2024-03-08T03:18:20;99190.03;;;-5.00;100.00
36600;BME280;35385;55.668;37.508;2024-03-08T03:19:23;99194.34;;;-4.99;100.00
36600;BME280;35385;55.668;37.508;2024-03-08T03:20:24;99197.91;;;-5.03;100.00
36600;BME280;35385;55.668;37.508;2024-03-08T03:21:28;99182.94;;;-4.95;100.00
36600;BME280;35385;55.668;37.508;2024-03-08T03:22:28;99189.44;;;-5.10;100.00
36600;BME280;35385;55.668;37.508;2024-03-08T03:23:30;99176.28;;;-5.05;100.00
36600;BME280;35385;55.668;37.508;2024-03-08T03:24:33;99182.88;;;-4.92;100.00
36600;BME280;35385;55.668;37.508;2024-03-08T03:25:33;99177.81;;;-4.98;100.00
36600;BME280;35385;55.668;37.508;2024-03-08T03:26:38;99174.88;;;-5.18;100.00
36600;BME280;35385;55.668;37.508;2024-03-08T03:27:41;99185.66;;;-5.32;100.00
36600;BME280;35385;55.668;37.508;2024-03-08T03:28:42;99181.09;;;-5.22;100.00
36600;BME280;35385;55.668;37.508;2024-03-08T03:29:43;99179.06;;;-5.11;100.00
36600;BME280;35385;55.668;37.508;2024-03-08T03:30:46;99177.97;;;-5.04;100.00
36600;BME280;35385;55.668;37.508;2024-03-08T03:31:47;99180.44;;;-4.98;100.00
36600;BME280;35385;55.668;37.508;2024-03-08T03:32:50;99177.91;;;-5.01;100.00
36600;BME280;35385;55.668;37.508;2024-03-08T03:33:51;99172.94;;;-5.10;100.00
36600;BME280;35385;55.668;37.508;2024-03-08T03:34:51;99180.66;;;-5.06;100.00
36600;BME280;35385;55.668;37.508;2024-03-08T03:35:53;99180.34;;;-4.95;100.00
36600;BME280;35385;55.668;37.508;2024-03-08T03:36:53;99178.81;;;-5.04;100.00
36600;BME280;35385;55.668;37.508;2024-03-08T03:37:55;99171.09;;;-5.05;100.00
36600;BME280;35385;55.668;37.508;2024-03-08T03:39:22;99172.09;;;-5.11;100.00
36600;BME280;35385;55.668;37.508;2024-03-08T03:40:22;99173.84;;;-5.11;100.00
36600;BME280;35385;55.668;37.508;2024-03-08T03:41:25;99169.97;;;-4.96;100.00
36600;BME280;35385;55.668;37.508;2024-03-08T03:42:25;99169.94;;;-4.95;100.00
36600;BME280;35385;55.668;37.508;2024-03-08T03:43:26;99175.22;;;-4.98;100.00
36600;BME280;35385;55.668;37.508;2024-03-08T03:44:27;99169.25;;;-5.03;100.00
36600;BME280;35385;55.668;37.508;2024-03-08T03:45:28;99172.06;;;-5.42;100.00
36600;BME280;35385;55.668;37.508;2024-03-08T03:46:28;99161.22;;;-5.59;100.00
36600;BME280;35385;55.668;37.508;2024-03-08T03:47:29;99159.09;;;-5.45;100.00
36600;BME280;35385;55.668;37.508;2024-03-08T03:48:29;99156.81;;;-5.23;100.00
36600;BME280;35385;55.668;37.508;2024-03-08T03:49:30;99159.25;;;-5.18;100.00
36600;BME280;35385;55.668;37.508;2024-03-08T03:50:30;99153.75;;;-5.39;100.00
36600;BME280;35385;55.668;37.508;2024-03-08T03:51:34;99151.38;;;-5.15;100.00
36600;BME280;35385;55.668;37.508;2024-03-08T03:52:34;99156.44;;;-5.42;100.00
36600;BME280;35385;55.668;37.508;2024-03-08T03:53:35;99152.94;;;-5.41;100.00
36600;BME280;35385;55.668;37.508;2024-03-08T03:54:35;99160.81;;;-5.11;100.00
36600;BME280;35385;55.668;37.508;2024-03-08T03:55:36;99162.25;;;-5.01;100.00
36600;BME280;35385;55.668;37.508;2024-03-08T03:56:39;99155.00;;;-4.90;100.00
36600;BME280;35385;55.668;37.508;2024-03-08T03:57:40;99163.91;;;-4.97;100.00
36600;BME280;35385;55.668;37.508;2024-03-08T03:58:40;99163.75;;;-5.23;100.00
36600;BME280;35385;55.668;37.508;2024-03-08T03:59:41;99154.66;;;-5.40;100.00
36600;BME280;35385;55.668;37.508;2024-03-08T04:00:41;99160.66;;;-5.38;100.00
36600;BME280;35385;55.668;37.508;2024-03-08T04:01:42;99164.50;;;-5.51;100.00
36600;BME280;35385;55.668;37.508;2024-03-08T04:02:43;99170.25;;;-5.40;100.00
36600;BME280;35385;55.668;37.508;2024-03-08T04:03:43;99164.00;;;-5.32;100.00
36600;BME280;35385;55.668;37.508;2024-03-08T04:04:44;99164.31;;;-5.12;100.00
36600;BME280;35385;55.668;37.508;2024-03-08T04:05:46;99163.63;;;-4.88;100.00
36600;BME280;35385;55.668;37.508;2024-03-08T04:06:46;99168.59;;;-4.79;100.00
36600;BME280;35385;55.668;37.508;2024-03-08T04:07:46;99164.09;;;-4.74;100.00
36600;BME280;35385;55.668;37.508;2024-03-08T04:08:47;99164.81;;;-4.69;100.00
36600;BME280;35385;55.668;37.508;2024-03-08T04:09:47;99171.50;;;-4.60;100.00
36600;BME280;35385;55.668;37.508;2024-03-08T04:10:48;99173.19;;;-4.57;100.00
36600;BME280;35385;55.668;37.508;2024-03-08T04:11:48;99169.72;;;-4.58;100.00
36600;BME280;35385;55.668;37.508;2024-03-08T04:12:50;99162.63;;;-4.82;100.00
36600;BME280;35385;55.668;37.508;2024-03-08T04:13:50;99163.84;;;-4.95;100.00
36600;BME280;35385;55.668;37.508;2024-03-08T04:14:52;99157.47;;;-4.85;100.00
36600;BME280;35385;55.668;37.508;2024-03-08T04:15:53;99158.13;;;-4.77;100.00
36600;BME280;35385;55.668;37.508;2024-03-08T04:16:54;99163.16;;;-5.02;100.00
36600;BME280;35385;55.668;37.508;2024-03-08T04:17:54;99161.13;;;-4.91;100.00
36600;BME280;35385;55.668;37.508;2024-03-08T04:18:55;99162.56;;;-4.81;100.00
36600;BME280;35385;55.668;37.508;2024-03-08T04:19:55;99155.25;;;-4.68;100.00
36600;BME280;35385;55.668;37.508;2024-03-08T04:20:55;99155.81;;;-4.58;100.00
36600;BME280;35385;55.668;37.508;2024-03-08T04:21:56;99145.38;;;-4.57;100.00
36600;BME280;35385;55.668;37.508;2024-03-08T04:22:57;99144.28;;;-4.50;100.00
36600;BME280;35385;55.668;37.508;2024-03-08T04:23:57;99154.75;;;-4.51;100.00
36600;BME280;35385;55.668;37.508;2024-03-08T04:24:58;99147.03;;;-4.54;100.00
36600;BME280;35385;55.668;37.508;2024-03-08T04:25:59;99153.19;;;-4.57;100.00
36600;BME280;35385;55.668;37.508;2024-03-08T04:27:00;99151.56;;;-4.61;100.00
36600;BME280;35385;55.668;37.508;2024-03-08T04:28:00;99149.97;;;-4.65;100.00
36600;BME280;35385;55.668;37.508;2024-03-08T04:29:01;99145.38;;;-4.57;100.00
36600;BME280;35385;55.668;37.508;2024-03-08T04:30:01;99140.88;;;-4.52;100.00
36600;BME280;35385;55.668;37.508;2024-03-08T04:31:03;99148.75;;;-4.53;100.00
36600;BME280;35385;55.668;37.508;2024-03-08T04:32:04;99153.97;;;-4.84;100.00
36600;BME280;35385;55.668;37.508;2024-03-08T04:33:04;99151.34;;;-4.83;100.00
36600;BME280;35385;55.668;37.508;2024-03-08T04:34:05;99142.25;;;-5.31;100.00
36600;BME280;35385;55.668;37.508;2024-03-08T04:35:05;99144.69;;;-5.24;100.00
36600;BME280;35385;55.668;37.508;2024-03-08T04:36:06;99149.78;;;-5.19;100.00
36600;BME280;35385;55.668;37.508;2024-03-08T04:37:07;99140.66;;;-5.36;100.00
36600;BME280;35385;55.668;37.508;2024-03-08T04:38:11;99145.47;;;-5.20;100.00
36600;BME280;35385;55.668;37.508;2024-03-08T04:39:11;99140.97;;;-5.15;100.00
36600;BME280;35385;55.668;37.508;2024-03-08T04:40:13;99137.00;;;-4.97;100.00
36600;BME280;35385;55.668;37.508;2024-03-08T04:41:13;99138.03;;;-4.74;100.00
36600;BME280;35385;55.668;37.508;2024-03-08T04:42:14;99147.13;;;-4.57;100.00
36600;BME280;35385;55.668;37.508;2024-03-08T04:43:16;99146.09;;;-4.52;100.00
36600;BME280;35385;55.668;37.508;2024-03-08T04:44:18;99149.50;;;-4.50;100.00
36600;BME280;35385;55.668;37.508;2024-03-08T04:45:19;99149.56;;;-4.51;100.00
36600;BME280;35385;55.668;37.508;2024-03-08T04:46:19;99145.03;;;-4.76;100.00
36600;BME280;35385;55.668;37.508;2024-03-08T04:47:19;99156.66;;;-4.87;100.00
36600;BME280;35385;55.668;37.508;2024-03-08T04:48:20;99155.69;;;-5.14;100.00
36600;BME280;35385;55.668;37.508;2024-03-08T04:49:20;99141.84;;;-5.16;100.00
36600;BME280;35385;55.668;37.508;2024-03-08T04:50:22;99143.06;;;-4.97;100.00
36600;BME280;35385;55.668;37.508;2024-03-08T04:51:23;99153.91;;;-4.81;100.00
36600;BME280;35385;55.668;37.508;2024-03-08T04:52:24;99147.63;;;-4.76;100.00
36600;BME280;35385;55.668;37.508;2024-03-08T04:53:24;99149.09;;;-4.95;100.00
36600;BME280;35385;55.668;37.508;2024-03-08T04:54:24;99144.84;;;-4.99;100.00
36600;BME280;35385;55.668;37.508;2024-03-08T04:55:25;99136.47;;;-4.79;100.00
36600;BME280;35385;55.668;37.508;2024-03-08T04:56:25;99144.72;;;-4.64;100.00
36600;BME280;35385;55.668;37.508;2024-03-08T04:57:26;99140.91;;;-4.53;100.00
36600;BME280;35385;55.668;37.508;2024-03-08T04:58:26;99139.94;;;-4.49;100.00
36600;BME280;35385;55.668;37.508;2024-03-08T04:59:27;99128.28;;;-4.67;100.00
36600;BME280;35385;55.668;37.508;2024-03-08T05:00:27;99131.84;;;-4.70;100.00
36600;BME280;35385;55.668;37.508;2024-03-08T05:01:28;99136.56;;;-4.82;100.00
36600;BME280;35385;55.668;37.508;2024-03-08T05:02:28;99141.78;;;-4.82;100.00
36600;BME280;35385;55.668;37.508;2024-03-08T05:03:29;99138.78;;;-5.00;100.00
36600;BME280;35385;55.668;37.508;2024-03-08T05:04:30;99118.69;;;-4.94;100.00
36600;BME280;35385;55.668;37.508;2024-03-08T05:05:30;99130.50;;;-4.83;100.00
36600;BME280;35385;55.668;37.508;2024-03-08T05:06:31;99127.41;;;-4.66;100.00
36600;BME280;35385;55.668;37.508;2024-03-08T05:07:31;99140.03;;;-4.52;100.00
36600;BME280;35385;55.668;37.508;2024-03-08T05:08:33;99136.31;;;-4.45;100.00
36600;BME280;35385;55.668;37.508;2024-03-08T05:09:34;99133.63;;;-4.42;100.00
36600;BME280;35385;55.668;37.508;2024-03-08T05:10:36;99123.41;;;-4.48;100.00
36600;BME280;35385;55.668;37.508;2024-03-08T05:11:36;99139.13;;;-4.81;100.00
36600;BME280;35385;55.668;37.508;2024-03-08T05:12:37;99137.13;;;-5.02;100.00
36600;BME280;35385;55.668;37.508;2024-03-08T05:13:38;99137.69;;;-4.91;100.00
36600;BME280;35385;55.668;37.508;2024-03-08T05:14:39;99140.13;;;-4.86;100.00
36600;BME280;35385;55.668;37.508;2024-03-08T05:15:39;99125.28;;;-5.14;100.00
36600;BME280;35385;55.668;37.508;2024-03-08T05:16:39;99137.00;;;-4.97;100.00